Time;durP1;ratioP1;P1;durP2;ratioP2;P2;SDS_P1;SDS_P2;PMS_P1;PMS_P2;Temp;Humidity;BMP_temperature;BMP_pressure;BME280_temperature;BME280_humidity;BME280_pressure;Samples;Min_cycle;Max_cycle;Signal;HPM_P1;HPM_P2
2022/05/22 00:00:16;;;;;;;5.95;2.53;;;;;;;;;;5070724;28;20032;-78
2022/05/22 00:02:42;;;;;;;4.43;2.33;;;;;;;;;;5053286;28;20051;-78
2022/05/22 00:05:11;;;;;;;6.35;2.80;;;;;;;;;;5058485;28;20041;-77
2022/05/22 00:07:37;;;;;;;4.68;2.25;;;;;;;;;;5033400;28;20044;-78
2022/05/22 00:10:04;;;;;;;5.32;2.88;;;;;;;;;;5034058;28;20037;-77
2022/05/22 00:12:29;;;;;;;6.57;2.80;;;;;;;;;;5033737;28;20029;-77
2022/05/22 00:14:55;;;;;;;4.30;2.53;;;;;;;;;;5052074;28;20035;-77
2022/05/22 00:17:20;;;;;;;4.15;3.00;;;;;;;;;;5052271;28;20032;-78
2022/05/22 00:19:46;;;;;;;3.72;2.72;;;;;;;;;;5059117;28;20020;-78
2022/05/22 00:22:12;;;;;;;5.30;2.60;;;;;;;;;;5071470;28;20103;-78
2022/05/22 00:24:38;;;;;;;4.57;2.63;;;;;;;;;;5071605;28;20056;-78
2022/05/22 00:27:05;;;;;;;4.45;2.65;;;;;;;;;;5053735;28;20063;-79
2022/05/22 00:29:31;;;;;;;4.50;2.42;;;;;;;;;;5071543;28;20024;-80
2022/05/22 00:31:57;;;;;;;5.82;2.70;;;;;;;;;;5071344;28;20036;-78
2022/05/22 00:34:23;;;;;;;5.88;2.75;;;;;;;;;;5049991;28;20459;-79
2022/05/22 00:36:49;;;;;;;5.97;2.80;;;;;;;;;;5049646;28;20108;-79
2022/05/22 00:39:14;;;;;;;4.47;3.05;;;;;;;;;;5050971;28;20051;-78
2022/05/22 00:41:40;;;;;;;6.50;3.20;;;;;;;;;;5051069;28;20032;-78
2022/05/22 00:44:07;;;;;;;5.28;2.88;;;;;;;;;;5049391;28;20464;-78
2022/05/22 00:46:33;;;;;;;4.80;2.80;;;;;;;;;;5049648;28;20086;-78
2022/05/22 00:49:23;;;;;;;5.75;2.67;;;;;;;;;;5036198;28;20094;-79
2022/05/22 00:51:51;;;;;;;5.20;2.78;;;;;;;;;;5070002;28;20393;-78
2022/05/22 00:54:24;;;;;;;5.35;2.60;;;;;;;;;;5053385;28;20393;-79
2022/05/22 00:56:56;;;;;;;3.45;2.45;;;;;;;;;;5053024;28;20544;-78
2022/05/22 00:59:32;;;;;;;3.80;2.90;;;;;;;;;;5053472;28;20476;-77
2022/05/22 01:01:59;;;;;;;5.57;2.35;;;;;;;;;;5053800;28;20060;-77
2022/05/22 01:04:28;;;;;;;5.20;2.65;;;;;;;;;;5053390;28;20130;-79
2022/05/22 01:06:54;;;;;;;5.65;3.40;;;;;;;;;;5052886;28;20032;-80
2022/05/22 01:09:20;;;;;;;4.70;2.38;;;;;;;;;;5053062;28;20033;-78
2022/05/22 01:11:48;;;;;;;4.80;2.40;;;;;;;;;;5052926;28;20029;-78
2022/05/22 01:14:18;;;;;;;6.10;3.50;;;;;;;;;;5053065;28;20036;-79
2022/05/22 01:16:45;;;;;;;6.72;3.05;;;;;;;;;;5053499;28;20039;-79
2022/05/22 01:19:13;;;;;;;5.97;2.60;;;;;;;;;;5054395;28;20028;-79
2022/05/22 01:21:40;;;;;;;3.47;2.72;;;;;;;;;;5054329;28;20101;-78
2022/05/22 01:24:07;;;;;;;3.78;2.53;;;;;;;;;;5053426;28;20128;-79
2022/05/22 01:26:32;;;;;;;2.70;2.42;;;;;;;;;;5069136;28;20025;-79
2022/05/22 01:28:58;;;;;;;5.32;2.42;;;;;;;;;;5053984;28;20025;-79
2022/05/22 01:31:23;;;;;;;5.35;2.90;;;;;;;;;;5054644;28;20104;-77
2022/05/22 01:33:49;;;;;;;12.27;3.88;;;;;;;;;;5054237;28;20431;-79
2022/05/22 01:36:16;;;;;;;10.43;2.65;;;;;;;;;;5053172;28;20021;-77
2022/05/22 01:38:42;;;;;;;6.00;2.58;;;;;;;;;;5053885;28;20025;-77
2022/05/22 01:41:08;;;;;;;3.58;2.40;;;;;;;;;;5052746;28;20479;-77
2022/05/22 01:43:34;;;;;;;6.45;2.60;;;;;;;;;;5071920;28;20044;-78
2022/05/22 01:46:01;;;;;;;4.68;2.53;;;;;;;;;;5073308;28;20077;-80
2022/05/22 01:48:28;;;;;;;3.83;2.53;;;;;;;;;;5072821;28;20078;-80
2022/05/22 01:50:53;;;;;;;5.35;2.70;;;;;;;;;;5073557;28;20061;-78
2022/05/22 01:53:21;;;;;;;5.97;2.90;;;;;;;;;;5074084;28;20485;-79
2022/05/22 01:55:50;;;;;;;5.38;2.95;;;;;;;;;;5056054;28;20115;-80
2022/05/22 01:58:16;;;;;;;4.97;3.03;;;;;;;;;;5055845;28;20020;-78
2022/05/22 02:00:42;;;;;;;4.25;2.67;;;;;;;;;;5054704;28;20032;-79
2022/05/22 02:03:07;;;;;;;8.57;3.15;;;;;;;;;;5073877;28;20039;-78
2022/05/22 02:05:34;;;;;;;6.50;3.33;;;;;;;;;;5052747;28;20021;-78
2022/05/22 02:10:47;;;;;;;5.40;2.80;;;;;;;;;;5053479;28;20502;-78
2022/05/22 02:13:16;;;;;;;5.05;2.72;;;;;;;;;;5069229;28;20086;-78
2022/05/22 02:15:44;;;;;;;4.80;2.70;;;;;;;;;;5069198;28;20078;-79
2022/05/22 02:18:09;;;;;;;3.03;2.72;;;;;;;;;;5062643;28;20045;-79
2022/05/22 02:20:36;;;;;;;3.70;2.95;;;;;;;;;;5053966;28;20084;-78
2022/05/22 02:23:01;;;;;;;6.88;3.00;;;;;;;;;;5053649;28;20024;-79
2022/05/22 02:25:30;;;;;;;8.68;3.30;;;;;;;;;;5035211;28;20043;-78
2022/05/22 02:27:57;;;;;;;5.75;2.90;;;;;;;;;;5035200;28;20075;-78
2022/05/22 02:30:27;;;;;;;4.78;2.92;;;;;;;;;;5035035;28;20454;-78
2022/05/22 02:32:52;;;;;;;6.80;2.92;;;;;;;;;;5053074;28;20032;-79
2022/05/22 02:35:18;;;;;;;6.40;3.00;;;;;;;;;;5053452;28;20067;-78
2022/05/22 02:37:49;;;;;;;7.20;2.92;;;;;;;;;;5051767;28;20028;-78
2022/05/22 02:40:17;;;;;;;6.15;2.97;;;;;;;;;;5051313;28;20469;-79
2022/05/22 02:42:46;;;;;;;4.07;3.13;;;;;;;;;;5051858;28;20052;-79
2022/05/22 02:45:13;;;;;;;3.55;2.67;;;;;;;;;;5051176;28;20404;-78
2022/05/22 02:47:39;;;;;;;4.43;2.97;;;;;;;;;;5052418;28;20033;-77
2022/05/22 02:50:07;;;;;;;7.38;3.30;;;;;;;;;;5052416;28;20032;-78
2022/05/22 02:52:33;;;;;;;4.80;3.00;;;;;;;;;;5051382;28;20107;-78
2022/05/22 02:54:59;;;;;;;8.48;3.38;;;;;;;;;;5052897;28;20048;-77
2022/05/22 02:57:25;;;;;;;7.07;2.80;;;;;;;;;;5067525;28;20025;-79
2022/05/22 02:59:52;;;;;;;10.80;3.15;;;;;;;;;;5051252;28;20059;-79
2022/05/22 03:02:18;;;;;;;6.50;2.92;;;;;;;;;;5068164;28;20052;-78
2022/05/22 03:04:44;;;;;;;3.88;2.67;;;;;;;;;;5052003;28;20028;-77
2022/05/22 03:07:12;;;;;;;5.82;3.22;;;;;;;;;;5051922;28;20444;-77
2022/05/22 03:09:39;;;;;;;7.63;3.50;;;;;;;;;;5051175;28;20090;-78
2022/05/22 03:12:11;;;;;;;8.30;3.20;;;;;;;;;;5050718;28;20024;-80
2022/05/22 03:14:36;;;;;;;;;;;;;;;;;;5052481;28;20540;-79
2022/05/22 03:17:02;;;;;;;4.43;2.92;;;;;;;;;;5067632;28;19909;-76
2022/05/22 03:19:28;;;;;;;6.15;3.40;;;;;;;;;;5051381;28;20025;-79
2022/05/22 03:21:53;;;;;;;4.60;2.75;;;;;;;;;;5050407;28;20025;-77
2022/05/22 03:24:19;;;;;;;8.32;3.42;;;;;;;;;;5051832;28;20029;-77
2022/05/22 03:26:45;;;;;;;10.98;3.35;;;;;;;;;;5052333;28;20420;-78
2022/05/22 03:29:11;;;;;;;5.68;3.13;;;;;;;;;;5051352;28;20221;-78
2022/05/22 03:31:37;;;;;;;7.07;3.45;;;;;;;;;;5050390;28;20032;-79
2022/05/22 03:34:03;;;;;;;5.78;3.13;;;;;;;;;;5050096;28;20400;-77
2022/05/22 03:36:29;;;;;;;6.05;3.35;;;;;;;;;;5051274;28;20052;-78
2022/05/22 03:38:55;;;;;;;5.72;3.38;;;;;;;;;;5052098;28;20067;-77
2022/05/22 03:41:20;;;;;;;4.35;3.38;;;;;;;;;;5052435;28;20107;-78
2022/05/22 03:43:46;;;;;;;7.95;3.55;;;;;;;;;;5049709;28;20048;-79
2022/05/22 03:46:12;;;;;;;5.03;2.90;;;;;;;;;;5052048;28;20457;-78
2022/05/22 03:48:38;;;;;;;6.55;3.58;;;;;;;;;;5052192;28;20029;-78
2022/05/22 03:51:03;;;;;;;4.57;3.10;;;;;;;;;;5052215;28;20029;-79
2022/05/22 03:53:29;;;;;;;6.50;3.72;;;;;;;;;;5052160;28;20021;-77
2022/05/22 03:55:54;;;;;;;5.05;2.92;;;;;;;;;;5051456;28;20041;-80
2022/05/22 03:58:20;;;;;;;7.22;4.03;;;;;;;;;;5033538;28;20406;-79
2022/05/22 04:00:45;;;;;;;5.75;3.50;;;;;;;;;;5051244;28;20029;-77
2022/05/22 04:03:11;;;;;;;3.95;3.17;;;;;;;;;;5052027;28;20029;-78
2022/05/22 04:05:37;;;;;;;6.13;3.35;;;;;;;;;;5051304;28;20431;-77
2022/05/22 04:08:03;;;;;;;3.67;3.25;;;;;;;;;;5017303;28;20116;-77
2022/05/22 04:10:30;;;;;;;5.45;3.22;;;;;;;;;;5050774;28;20037;-78
2022/05/22 04:12:55;;;;;;;9.48;3.40;;;;;;;;;;5051059;28;20071;-78
2022/05/22 04:15:22;;;;;;;5.75;3.80;;;;;;;;;;5049951;28;20048;-77
2022/05/22 04:17:48;;;;;;;5.72;3.45;;;;;;;;;;5051917;28;20029;-78
2022/05/22 04:20:15;;;;;;;6.90;3.90;;;;;;;;;;5050984;28;20063;-77
2022/05/22 04:25:25;;;;;;;5.90;3.65;;;;;;;;;;5055734;28;20052;-77
2022/05/22 04:27:51;;;;;;;5.82;3.88;;;;;;;;;;5055140;28;20029;-76
2022/05/22 04:30:18;;;;;;;7.63;3.33;;;;;;;;;;5037422;28;20039;-77
2022/05/22 04:32:49;;;;;;;5.53;3.53;;;;;;;;;;5055851;28;20086;-78
2022/05/22 04:35:17;;;;;;;5.03;3.08;;;;;;;;;;5055632;28;20033;-77
2022/05/22 04:37:43;;;;;;;4.93;3.78;;;;;;;;;;5053866;28;20052;-78
2022/05/22 04:40:23;;;;;;;6.90;3.40;;;;;;;;;;5055263;28;20455;-79
2022/05/22 04:42:49;;;;;;;8.75;3.53;;;;;;;;;;5067707;28;20106;-79
2022/05/22 04:45:14;;;;;;;4.85;3.40;;;;;;;;;;5074266;28;20032;-78
2022/05/22 04:47:41;;;;;;;9.10;3.78;;;;;;;;;;5075052;28;20380;-77
2022/05/22 04:50:08;;;;;;;8.23;3.58;;;;;;;;;;5053676;28;20055;-78
2022/05/22 04:52:34;;;;;;;8.77;4.00;;;;;;;;;;5070306;28;20070;-76
2022/05/22 04:54:59;;;;;;;7.47;3.60;;;;;;;;;;5054496;28;20037;-77
2022/05/22 04:57:25;;;;;;;6.97;3.65;;;;;;;;;;5054708;28;20465;-76
2022/05/22 04:59:51;;;;;;;7.93;3.10;;;;;;;;;;5052887;28;20028;-77
2022/05/22 05:02:16;;;;;;;5.93;3.10;;;;;;;;;;5054043;28;20496;-76
2022/05/22 05:04:42;;;;;;;8.68;3.83;;;;;;;;;;5053681;28;20031;-80
2022/05/22 05:07:09;;;;;;;4.80;3.58;;;;;;;;;;5054497;28;20528;-79
2022/05/22 05:09:35;;;;;;;7.05;3.42;;;;;;;;;;5069688;28;20480;-77
2022/05/22 05:12:02;;;;;;;8.07;3.88;;;;;;;;;;5069798;28;20074;-77
2022/05/22 05:14:27;;;;;;;8.93;3.90;;;;;;;;;;5054490;28;20481;-78
2022/05/22 05:16:53;;;;;;;4.70;3.65;;;;;;;;;;5054744;28;20077;-81
2022/05/22 05:19:18;;;;;;;11.25;3.45;;;;;;;;;;5054068;28;20028;-78
2022/05/22 05:21:44;;;;;;;8.00;3.50;;;;;;;;;;5049511;28;20492;-78
2022/05/22 05:24:11;;;;;;;6.97;3.78;;;;;;;;;;5016951;28;20025;-79
2022/05/22 05:26:36;;;;;;;4.43;3.63;;;;;;;;;;5034255;28;20425;-77
2022/05/22 05:29:02;;;;;;;6.78;3.45;;;;;;;;;;5016297;28;20022;-78
2022/05/22 05:31:28;;;;;;;7.00;4.03;;;;;;;;;;5034693;28;20115;-79
2022/05/22 05:33:53;;;;;;;9.63;4.45;;;;;;;;;;5037740;28;20442;-77
2022/05/22 05:36:19;;;;;;;9.02;4.35;;;;;;;;;;5056285;28;20029;-76
2022/05/22 05:38:45;;;;;;;5.95;3.42;;;;;;;;;;5055596;28;20020;-77
2022/05/22 05:41:11;;;;;;;6.45;3.80;;;;;;;;;;5055805;28;20051;-76
2022/05/22 05:43:37;;;;;;;9.02;4.20;;;;;;;;;;5052539;28;20077;-78
2022/05/22 05:46:03;;;;;;;6.55;3.40;;;;;;;;;;5052101;28;20497;-78
2022/05/22 05:48:30;;;;;;;6.43;3.35;;;;;;;;;;5053521;28;20029;-79
2022/05/22 05:51:14;;;;;;;5.65;3.90;;;;;;;;;;5069573;28;20020;-79
2022/05/22 05:53:40;;;;;;;6.60;3.65;;;;;;;;;;5069293;28;20025;-77
2022/05/22 05:56:07;;;;;;;8.80;3.92;;;;;;;;;;5053840;28;20025;-76
2022/05/22 05:58:33;;;;;;;6.90;3.70;;;;;;;;;;5052993;28;20040;-78
2022/05/22 06:00:58;;;;;;;4.72;3.15;;;;;;;;;;5053630;28;20029;-77
2022/05/22 06:03:24;;;;;;;7.80;3.75;;;;;;;;;;5051811;28;20490;-77
2022/05/22 06:05:49;;;;;;;8.25;3.67;;;;;;;;;;5051944;28;20021;-79
2022/05/22 06:08:15;;;;;;;10.48;3.42;;;;;;;;;;5053753;28;20036;-78
2022/05/22 06:10:41;;;;;;;7.65;4.18;;;;;;;;;;5053281;28;20024;-77
2022/05/22 06:13:08;;;;;;;7.40;3.55;;;;;;;;;;5051665;28;20032;-78
2022/05/22 06:15:35;;;;;;;8.70;3.50;;;;;;;;;;5051762;28;20028;-78
2022/05/22 06:18:00;;;;;;;6.25;4.07;;;;;;;;;;5068222;28;20487;-77
2022/05/22 06:20:26;;;;;;;6.40;3.78;;;;;;;;;;5052059;28;20029;-78
2022/05/22 06:22:51;;;;;;;9.23;3.97;;;;;;;;;;5067676;28;20028;-77
2022/05/22 06:25:17;;;;;;;7.88;3.30;;;;;;;;;;5068275;28;20389;-77
2022/05/22 06:27:44;;;;;;;11.00;3.60;;;;;;;;;;5052546;28;20053;-79
2022/05/22 06:30:13;;;;;;;9.65;3.58;;;;;;;;;;5051757;28;20021;-78
2022/05/22 06:32:41;;;;;;;9.60;3.30;;;;;;;;;;5051738;28;20087;-77
2022/05/22 06:35:09;;;;;;;6.97;3.85;;;;;;;;;;5050811;28;20537;-80
2022/05/22 06:37:35;;;;;;;8.57;3.65;;;;;;;;;;5051074;28;20045;-79
2022/05/22 06:40:01;;;;;;;7.40;3.58;;;;;;;;;;5051295;28;20496;-81
2022/05/22 06:42:34;;;;;;;9.27;3.92;;;;;;;;;;5051340;28;20076;-80
2022/05/22 06:45:08;;;;;;;8.88;3.65;;;;;;;;;;5052019;28;20025;-77
2022/05/22 06:47:35;;;;;;;9.95;3.08;;;;;;;;;;5051103;28;20025;-79
2022/05/22 06:50:04;;;;;;;6.50;2.85;;;;;;;;;;5042191;28;20108;-78
2022/05/22 06:52:30;;;;;;;9.02;3.55;;;;;;;;;;5051148;28;20056;-78
2022/05/22 06:54:56;;;;;;;6.15;3.60;;;;;;;;;;5051944;28;20025;-79
2022/05/22 06:57:21;;;;;;;8.02;3.67;;;;;;;;;;5052260;28;20025;-78
2022/05/22 06:59:48;;;;;;;6.82;3.10;;;;;;;;;;5050967;28;20021;-78
2022/05/22 07:02:15;;;;;;;10.15;3.40;;;;;;;;;;5052063;28;20033;-78
2022/05/22 07:04:41;;;;;;;10.25;3.40;;;;;;;;;;5056209;28;20028;-79
2022/05/22 07:07:07;;;;;;;7.22;3.08;;;;;;;;;;5034330;28;20048;-79
2022/05/22 07:09:33;;;;;;;4.35;3.33;;;;;;;;;;5050835;28;20032;-78
2022/05/22 07:11:59;;;;;;;8.55;2.60;;;;;;;;;;5051575;28;20052;-80
2022/05/22 07:14:27;;;;;;;4.63;2.80;;;;;;;;;;5051423;28;20137;-79
2022/05/22 07:16:54;;;;;;;5.78;2.78;;;;;;;;;;5050926;28;20032;-78
2022/05/22 07:19:20;;;;;;;6.88;2.88;;;;;;;;;;5066875;28;20021;-79
2022/05/22 07:21:48;;;;;;;5.60;2.35;;;;;;;;;;5050948;28;20028;-79
2022/05/22 07:24:14;;;;;;;5.03;2.65;;;;;;;;;;5051799;28;20029;-77
2022/05/22 07:26:40;;;;;;;8.60;3.15;;;;;;;;;;5051574;28;20380;-80
2022/05/22 07:29:06;;;;;;;5.68;2.72;;;;;;;;;;5050049;28;20648;-78
2022/05/22 07:31:32;;;;;;;6.47;2.60;;;;;;;;;;5050564;28;20032;-78
2022/05/22 07:33:59;;;;;;;5.05;2.72;;;;;;;;;;5051606;28;20451;-78
2022/05/22 07:36:25;;;;;;;7.07;3.33;;;;;;;;;;5050748;28;20040;-78
2022/05/22 07:38:50;;;;;;;5.63;3.08;;;;;;;;;;5052207;28;20025;-78
2022/05/22 07:41:18;;;;;;;6.93;2.83;;;;;;;;;;5051666;28;20303;-78
2022/05/22 07:43:43;;;;;;;9.70;4.80;;;;;;;;;;5050428;28;20049;-79
2022/05/22 07:46:12;;;;;;;8.65;3.05;;;;;;;;;;5050596;28;20029;-79
2022/05/22 07:48:38;;;;;;;7.50;3.45;;;;;;;;;;5051454;28;20025;-81
2022/05/22 07:51:04;;;;;;;9.02;2.70;;;;;;;;;;5049936;28;20047;-77
2022/05/22 07:53:31;;;;;;;7.75;3.58;;;;;;;;;;5050087;28;20032;-77
2022/05/22 07:56:07;;;;;;;4.63;2.95;;;;;;;;;;5050796;28;20043;-76
2022/05/22 07:58:34;;;;;;;8.18;2.97;;;;;;;;;;5066546;28;20032;-78
2022/05/22 08:01:00;;;;;;;7.40;2.90;;;;;;;;;;5051075;28;20094;-78
2022/05/22 08:03:26;;;;;;;6.88;2.50;;;;;;;;;;5067671;28;20040;-80
2022/05/22 08:05:53;;;;;;;9.93;2.75;;;;;;;;;;5051403;28;20551;-78
2022/05/22 08:08:19;;;;;;;11.85;4.05;;;;;;;;;;5051792;28;20092;-79
2022/05/22 08:10:45;;;;;;;5.93;2.45;;;;;;;;;;5051377;28;20546;-80
2022/05/22 08:13:20;;;;;;;7.10;2.38;;;;;;;;;;5051494;28;20122;-79
2022/05/22 08:16:03;;;;;;;9.52;3.10;;;;;;;;;;5068456;28;20033;-80
2022/05/22 08:18:29;;;;;;;7.60;3.08;;;;;;;;;;5051020;28;20068;-78
2022/05/22 08:20:57;;;;;;;9.25;2.72;;;;;;;;;;5052707;28;20508;-78
2022/05/22 08:23:25;;;;;;;7.07;2.55;;;;;;;;;;5032936;28;20029;-77
2022/05/22 08:25:54;;;;;;;7.15;2.42;;;;;;;;;;5052097;28;20377;-79
2022/05/22 08:28:24;;;;;;;11.00;2.58;;;;;;;;;;5051198;28;20129;-77
2022/05/22 08:30:50;;;;;;;4.78;2.80;;;;;;;;;;5051519;28;20056;-78
2022/05/22 08:33:23;;;;;;;5.78;2.88;;;;;;;;;;5035579;28;20029;-79
2022/05/22 08:35:57;;;;;;;8.68;2.90;;;;;;;;;;5052272;28;20037;-77
2022/05/22 08:38:29;;;;;;;7.32;2.75;;;;;;;;;;5052547;28;20128;-78
2022/05/22 08:41:11;;;;;;;5.07;3.08;;;;;;;;;;5052480;28;20340;-79
2022/05/22 08:43:52;;;;;;;6.65;2.63;;;;;;;;;;5052543;28;20429;-78
2022/05/22 08:46:27;;;;;;;9.70;2.90;;;;;;;;;;5051444;28;20036;-78
2022/05/22 08:48:58;;;;;;;4.90;2.40;;;;;;;;;;5051927;28;20067;-77
2022/05/22 08:51:38;;;;;;;5.95;3.03;;;;;;;;;;5052390;28;20029;-80
2022/05/22 08:54:27;;;;;;;8.45;3.10;;;;;;;;;;5051316;28;20025;-78
2022/05/22 08:59:42;;;;;;;10.70;3.25;;;;;;;;;;5051337;28;20189;-80
2022/05/22 09:02:32;;;;;;;7.13;2.63;;;;;;;;;;5033026;28;20021;-81
2022/05/22 09:05:35;;;;;;;6.15;2.92;;;;;;;;;;5051246;28;20056;-78
2022/05/22 09:08:06;;;;;;;11.15;3.70;;;;;;;;;;4988988;28;20499;-78
2022/05/22 09:10:50;;;;;;;;;;;;;;;;;;5045633;28;20040;-77
2022/05/22 09:13:30;;;;;;;6.22;2.90;;;;;;;;;;5053331;28;19999;-79
2022/05/22 09:16:29;;;;;;;5.65;3.30;;;;;;;;;;5053492;28;20029;-79
2022/05/22 09:19:15;;;;;;;8.43;4.00;;;;;;;;;;5052691;28;20036;-79
2022/05/22 09:22:15;;;;;;;8.38;3.10;;;;;;;;;;5054516;28;20130;-79
2022/05/22 09:25:08;;;;;;;10.87;3.50;;;;;;;;;;4976224;28;20088;-80
2022/05/22 09:27:51;;;;;;;8.77;2.70;;;;;;;;;;5053343;28;20277;-80
2022/05/22 09:30:35;;;;;;;3.80;2.97;;;;;;;;;;5053185;28;20033;-79
2022/05/22 09:33:18;;;;;;;6.57;3.40;;;;;;;;;;5052102;28;20037;-79
2022/05/22 09:36:16;;;;;;;4.72;2.75;;;;;;;;;;5066499;28;20516;-80
2022/05/22 09:39:02;;;;;;;4.82;2.50;;;;;;;;;;5053136;28;20056;-77
2022/05/22 09:41:53;;;;;;;9.82;3.55;;;;;;;;;;5053957;28;20063;-81
2022/05/22 09:44:45;;;;;;;9.15;3.85;;;;;;;;;;5073672;28;20040;-79
2022/05/22 09:47:29;;;;;;;7.38;3.00;;;;;;;;;;5073691;28;20040;-79
2022/05/22 09:50:35;;;;;;;5.30;2.92;;;;;;;;;;5073381;28;20067;-78
2022/05/22 09:53:17;;;;;;;5.07;2.65;;;;;;;;;;5073708;28;20107;-80
2022/05/22 09:55:45;;;;;;;6.22;2.63;;;;;;;;;;5072866;28;20027;-80
2022/05/22 09:58:23;;;;;;;7.28;2.70;;;;;;;;;;5054967;28;20575;-80
2022/05/22 10:01:03;;;;;;;3.78;2.58;;;;;;;;;;5055359;28;20557;-79
2022/05/22 10:04:02;;;;;;;3.28;2.55;;;;;;;;;;5055533;28;20047;-81
2022/05/22 10:06:39;;;;;;;5.40;2.88;;;;;;;;;;5055130;28;20052;-79
2022/05/22 10:09:46;;;;;;;6.35;2.63;;;;;;;;;;5072486;28;20105;-80
2022/05/22 10:13:21;;;;;;;5.32;2.20;;;;;;;;;;5072028;28;20048;-79
2022/05/22 10:16:02;;;;;;;4.40;2.45;;;;;;;;;;4961544;28;20027;-81
2022/05/22 10:18:46;;;;;;;4.68;2.88;;;;;;;;;;5030211;28;20549;-78
2022/05/22 10:21:14;;;;;;;5.68;2.70;;;;;;;;;;5067484;28;20047;-78
2022/05/22 10:23:39;;;;;;;8.77;3.10;;;;;;;;;;5054998;28;20036;-79
2022/05/22 10:26:31;;;;;;;7.40;3.63;;;;;;;;;;5054766;28;20477;-79
2022/05/22 10:29:17;;;;;;;;;;;;;;;;;;5054859;28;20024;-79
2022/05/22 10:31:59;;;;;;;6.38;2.38;;;;;;;;;;5072004;28;19912;-78
2022/05/22 10:34:39;;;;;;;3.70;1.90;;;;;;;;;;5066074;28;20029;-79
2022/05/22 10:37:19;;;;;;;8.90;2.60;;;;;;;;;;5052515;28;20025;-78
2022/05/22 10:39:45;;;;;;;3.60;1.77;;;;;;;;;;5067822;28;20025;-78
2022/05/22 10:45:34;;;;;;;4.90;2.08;;;;;;;;;;5072227;28;20034;-79
2022/05/22 10:48:23;;;;;;;6.78;2.83;;;;;;;;;;5071065;28;20365;-79
2022/05/22 10:51:08;;;;;;;5.20;2.78;;;;;;;;;;5053134;28;20122;-80
2022/05/22 10:53:47;;;;;;;3.53;2.42;;;;;;;;;;5050188;28;20516;-79
2022/05/22 10:56:17;;;;;;;5.45;2.42;;;;;;;;;;5050710;28;20062;-80
2022/05/22 10:59:04;;;;;;;7.28;2.30;;;;;;;;;;5050873;28;20024;-79
2022/05/22 11:01:39;;;;;;;4.93;3.15;;;;;;;;;;5050066;28;20024;-79
2022/05/22 11:04:16;;;;;;;4.97;2.10;;;;;;;;;;5054892;28;20072;-79
2022/05/22 11:06:52;;;;;;;5.10;2.03;;;;;;;;;;5054100;28;20438;-79
2022/05/22 11:09:25;;;;;;;4.05;2.10;;;;;;;;;;5070262;28;20035;-80
2022/05/22 11:11:50;;;;;;;3.67;1.95;;;;;;;;;;5071949;28;20035;-78
2022/05/22 11:14:21;;;;;;;5.22;2.45;;;;;;;;;;5070672;28;20392;-80
2022/05/22 11:16:47;;;;;;;4.53;2.25;;;;;;;;;;5071755;28;20089;-79
2022/05/22 11:19:24;;;;;;;3.97;1.88;;;;;;;;;;5066575;28;20024;-79
2022/05/22 11:22:27;;;;;;;6.60;2.38;;;;;;;;;;5050817;28;20168;-80
2022/05/22 11:25:11;;;;;;;5.15;2.58;;;;;;;;;;5034205;28;20087;-81
2022/05/22 11:27:55;;;;;;;3.42;1.90;;;;;;;;;;5034081;28;20111;-80
2022/05/22 11:30:32;;;;;;;5.45;2.75;;;;;;;;;;5052285;28;20447;-79
2022/05/22 11:33:09;;;;;;;3.28;2.20;;;;;;;;;;5034563;28;20048;-80
2022/05/22 11:35:52;;;;;;;4.95;2.78;;;;;;;;;;5051298;28;20486;-79
2022/05/22 11:38:44;;;;;;;13.13;3.17;;;;;;;;;;5051607;28;20016;-79
2022/05/22 11:41:19;;;;;;;3.90;2.67;;;;;;;;;;5051411;28;20044;-79
2022/05/22 11:44:31;;;;;;;6.53;2.22;;;;;;;;;;5049791;28;20107;-79
2022/05/22 11:47:32;;;;;;;6.07;2.03;;;;;;;;;;5047795;28;20041;-80
2022/05/22 11:50:09;;;;;;;4.72;2.15;;;;;;;;;;5050779;28;20021;-78
2022/05/22 11:52:55;;;;;;;5.05;2.17;;;;;;;;;;5051087;28;20666;-80
2022/05/22 11:55:58;;;;;;;9.05;2.05;;;;;;;;;;5051307;28;20086;-79
2022/05/22 11:58:55;;;;;;;3.13;1.90;;;;;;;;;;5050791;28;20124;-80
2022/05/22 12:01:52;;;;;;;6.75;1.80;;;;;;;;;;5050598;28;20439;-80
2022/05/22 12:04:40;;;;;;;3.90;1.65;;;;;;;;;;5050424;28;20030;-80
2022/05/22 12:07:36;;;;;;;5.72;1.73;;;;;;;;;;5052023;28;20473;-79
2022/05/22 12:10:10;;;;;;;2.65;1.50;;;;;;;;;;5051931;28;20036;-80
2022/05/22 12:12:58;;;;;;;4.93;1.83;;;;;;;;;;5051993;28;20393;-80
2022/05/22 12:15:31;;;;;;;3.35;1.95;;;;;;;;;;5052170;28;20092;-79
2022/05/22 12:18:21;;;;;;;6.82;2.03;;;;;;;;;;5051632;28;20096;-78
2022/05/22 12:21:05;;;;;;;5.97;2.27;;;;;;;;;;5051609;28;20035;-82
2022/05/22 12:23:51;;;;;;;5.07;1.77;;;;;;;;;;5031230;28;20028;-79
2022/05/22 12:26:17;;;;;;;3.97;1.77;;;;;;;;;;5030107;28;20029;-79
2022/05/22 12:29:08;;;;;;;4.78;2.33;;;;;;;;;;5029757;28;20040;-79
2022/05/22 12:31:47;;;;;;;7.80;2.38;;;;;;;;;;5029592;28;20504;-81
2022/05/22 12:34:18;;;;;;;3.00;1.50;;;;;;;;;;5031107;28;20509;-82
2022/05/22 12:36:45;;;;;;;;;;;;;;;;;;5030926;28;20079;-80
2022/05/22 12:39:13;;;;;;;3.88;2.10;;;;;;;;;;5031686;28;19916;-81
2022/05/22 12:41:48;;;;;;;7.20;2.17;;;;;;;;;;5013558;28;20081;-79
2022/05/22 12:44:13;;;;;;;3.42;1.60;;;;;;;;;;5015796;28;20041;-78
2022/05/22 12:46:40;;;;;;;4.20;2.20;;;;;;;;;;5033327;28;20056;-78
2022/05/22 12:49:19;;;;;;;4.97;2.50;;;;;;;;;;5019394;28;20029;-80
2022/05/22 12:52:03;;;;;;;3.78;2.22;;;;;;;;;;5053506;28;20075;-78
2022/05/22 12:54:34;;;;;;;4.88;2.55;;;;;;;;;;5055174;28;20108;-79
2022/05/22 12:57:16;;;;;;;2.90;1.70;;;;;;;;;;5071020;28;20503;-80
2022/05/22 13:00:00;;;;;;;3.05;1.55;;;;;;;;;;5055655;28;20013;-79
2022/05/22 13:02:41;;;;;;;3.72;1.52;;;;;;;;;;5071367;28;20086;-79
2022/05/22 13:05:24;;;;;;;4.55;1.42;;;;;;;;;;5053205;28;20463;-80
2022/05/22 13:07:50;;;;;;;7.72;2.08;;;;;;;;;;5053836;28;20029;-79
2022/05/22 13:10:33;;;;;;;6.05;1.80;;;;;;;;;;5054316;28;20098;-79
2022/05/22 13:13:03;;;;;;;3.47;1.73;;;;;;;;;;5070723;28;20017;-79
2022/05/22 13:15:31;;;;;;;5.13;1.83;;;;;;;;;;5056220;28;20024;-81
2022/05/22 13:18:16;;;;;;;5.22;1.92;;;;;;;;;;5055250;28;20262;-79
2022/05/22 13:20:57;;;;;;;4.50;1.50;;;;;;;;;;5055715;28;20032;-79
2022/05/22 13:23:25;;;;;;;4.35;1.55;;;;;;;;;;5054431;28;20361;-81
2022/05/22 13:25:56;;;;;;;3.13;1.63;;;;;;;;;;5055808;28;20029;-78
2022/05/22 13:28:33;;;;;;;5.53;2.10;;;;;;;;;;5054638;28;20017;-79
2022/05/22 13:31:12;;;;;;;2.95;1.60;;;;;;;;;;5055567;28;20093;-79
2022/05/22 13:33:52;;;;;;;3.13;1.70;;;;;;;;;;5054186;28;20107;-77
2022/05/22 13:36:26;;;;;;;3.53;1.63;;;;;;;;;;5054357;28;20416;-78
2022/05/22 13:39:04;;;;;;;5.97;1.92;;;;;;;;;;5056037;28;20017;-80
2022/05/22 13:42:20;;;;;;;1.73;1.30;;;;;;;;;;5054323;28;20029;-78
2022/05/22 13:45:09;;;;;;;3.80;1.67;;;;;;;;;;5054872;28;20052;-81
2022/05/22 13:48:02;;;;;;;5.10;1.80;;;;;;;;;;5054477;28;20021;-81
2022/05/22 13:54:11;;;;;;;2.22;1.50;;;;;;;;;;5054279;28;20102;-81
2022/05/22 13:56:50;;;;;;;7.22;1.50;;;;;;;;;;5052897;28;20114;-79
2022/05/22 13:59:26;;;;;;;4.65;1.55;;;;;;;;;;5053757;28;20028;-80
2022/05/22 14:01:53;;;;;;;4.85;1.90;;;;;;;;;;5052759;28;20029;-80
2022/05/22 14:04:20;;;;;;;6.35;1.83;;;;;;;;;;5053129;28;20045;-80
2022/05/22 14:06:49;;;;;;;4.55;1.73;;;;;;;;;;5052243;28;20107;-79
2022/05/22 14:09:41;;;;;;;6.38;1.40;;;;;;;;;;5054140;28;20348;-79
2022/05/22 14:12:13;;;;;;;2.15;1.55;;;;;;;;;;5052403;28;20040;-79
2022/05/22 14:14:39;;;;;;;6.32;1.40;;;;;;;;;;5052340;28;20078;-79
2022/05/22 14:17:09;;;;;;;2.95;1.48;;;;;;;;;;5054351;28;20461;-78
2022/05/22 14:19:40;;;;;;;3.20;1.30;;;;;;;;;;5053563;28;20100;-78
2022/05/22 14:22:34;;;;;;;6.70;1.65;;;;;;;;;;5051944;28;20490;-78
2022/05/22 14:25:00;;;;;;;2.33;0.90;;;;;;;;;;5051922;28;20071;-80
2022/05/22 14:27:32;;;;;;;3.88;1.25;;;;;;;;;;5053293;28;20033;-78
2022/05/22 14:30:31;;;;;;;2.20;1.60;;;;;;;;;;5053094;28;20055;-79
2022/05/22 14:33:16;;;;;;;3.75;1.92;;;;;;;;;;5052495;28;20032;-80
2022/05/22 14:35:44;;;;;;;4.35;1.65;;;;;;;;;;5052589;28;20041;-81
2022/05/22 14:38:24;;;;;;;2.33;1.20;;;;;;;;;;5052748;28;20396;-82
2022/05/22 14:41:17;;;;;;;3.20;1.30;;;;;;;;;;5052799;28;20028;-80
2022/05/22 14:43:55;;;;;;;4.47;1.45;;;;;;;;;;5070309;28;20286;-79
2022/05/22 14:46:26;;;;;;;3.17;1.70;;;;;;;;;;5073177;28;20035;-82
2022/05/22 14:48:57;;;;;;;3.35;1.20;;;;;;;;;;5070832;28;20028;-77
2022/05/22 14:51:40;;;;;;;13.32;2.78;;;;;;;;;;5052217;28;20029;-79
2022/05/22 14:54:12;;;;;;;5.13;1.67;;;;;;;;;;5053573;28;20021;-81
2022/05/22 14:56:42;;;;;;;3.78;2.05;;;;;;;;;;5053029;28;20386;-80
2022/05/22 14:59:18;;;;;;;4.00;1.55;;;;;;;;;;5053407;28;20096;-79
2022/05/22 15:01:52;;;;;;;1.95;0.93;;;;;;;;;;5053163;28;20409;-79
2022/05/22 15:04:23;;;;;;;3.22;1.63;;;;;;;;;;5068371;28;20025;-81
2022/05/22 15:07:04;;;;;;;3.45;1.55;;;;;;;;;;5068465;28;20081;-81
2022/05/22 15:09:37;;;;;;;3.92;1.75;;;;;;;;;;5068548;28;20603;-80
2022/05/22 15:12:12;;;;;;;3.75;2.13;;;;;;;;;;5053707;28;20442;-80
2022/05/22 15:14:49;;;;;;;2.03;1.20;;;;;;;;;;5068935;28;20503;-79
2022/05/22 15:17:21;;;;;;;6.43;1.40;;;;;;;;;;5069454;28;20553;-83
2022/05/22 15:19:53;;;;;;;4.32;1.48;;;;;;;;;;5051783;28;20036;-81
2022/05/22 15:25:39;;;;;;;4.72;1.58;;;;;;;;;;5052819;28;20039;-79
2022/05/22 15:28:11;;;;;;;6.35;1.63;;;;;;;;;;5067588;28;20086;-81
2022/05/22 15:30:37;;;;;;;4.97;1.65;;;;;;;;;;5051342;28;20095;-83
2022/05/22 15:33:15;;;;;;;1.65;1.13;;;;;;;;;;5051752;28;20066;-80